首页
METAR-TAF:

METAR-TAF

机场 :

瓦岱國際機場

永珍, 老挝

纬度: 17-57N, 经度: 102-34E, 海拔: 171米

当前天气观测

该预报发布于37分钟前的07:30 UTC
风速2节,风向西南
温度 32°C
湿度 59%
气压 1008 hPa
能见度10公里或以上
散云层高于2000英尺
散云层高于4000英尺

METAR: VLVT 220730Z 22002KT 9999 SCT020 SCT040 32/23 Q1008 NOSIG

时间: 15:07 (08:07 UTC)

预报

该预报发布于3小时和7分钟前的05:00 UTC
预报有效从22日的 06点(UTC)到 23日的 06点(UTC)
风速4节,风向西南
能见度10公里或以上
散云层高于2000英尺
散云层高于5000英尺
短暂存在
从 22日的 09点(UTC)到 22日的 13点(UTC)
能見度: 3000
散云层高于1000英尺
少量云层高于2300英尺, 积雨云.
多云层高于4000英尺
雷暴, 雨

TAF: VLVT 220500Z 2206/2306 22004KT 9999 SCT020 SCT050 TEMPO 2209/2213 3000 TSRA SCT010 FEW023CB BKN040

超过4000个机场的气象观测和天气预报(METAR&TAF报告)。

可查询的气象台以黄色和红色小点在地图上表示。

将鼠标移到小点上方,可查看气象台名称。

然后点击查看天气观测和预报。

如需切换地图:点击带黑十字的绿色按钮放大地图;点击带横线的绿色按钮缩小地图;或者点击绿色箭头查看邻近地区的地图。


METAR-TAF: